createdAt,value
2023-05-09T00:00:45.069Z,39.49
2023-05-09T00:05:02.905Z,41.16
2023-05-09T00:09:19.309Z,40.49
2023-05-09T00:13:36.039Z,40.73
2023-05-09T00:17:53.290Z,42.22
2023-05-09T00:22:09.645Z,42.24
2023-05-09T00:26:26.611Z,42.20
2023-05-09T00:30:42.897Z,42.57
2023-05-09T00:34:59.460Z,42.84
2023-05-09T00:39:15.804Z,43.63
2023-05-09T00:43:32.278Z,43.06
2023-05-09T00:47:48.609Z,43.62
2023-05-09T00:52:05.561Z,44.28
2023-05-09T00:56:22.296Z,44.06
2023-05-09T01:00:38.633Z,44.47
2023-05-09T01:04:54.897Z,43.43
2023-05-09T01:09:40.532Z,43.91
2023-05-09T01:14:15.099Z,43.81
2023-05-09T01:18:50.225Z,43.29
2023-05-09T01:23:27.649Z,44.36
2023-05-09T01:28:07.965Z,44.29
2023-05-09T01:32:27.141Z,43.51
2023-05-09T01:36:44.573Z,44.31
2023-05-09T01:41:02.625Z,44.45
2023-05-09T01:45:20.176Z,45.66
2023-05-09T01:49:38.066Z,45.68
2023-05-09T01:53:55.937Z,45.97
2023-05-09T01:58:12.499Z,45.66
2023-05-09T02:02:29.433Z,45.65
2023-05-09T02:06:46.445Z,45.35
2023-05-09T02:11:02.831Z,45.60
2023-05-09T02:15:19.311Z,45.28
2023-05-09T02:19:36.442Z,45.58
2023-05-09T02:23:52.703Z,45.16
2023-05-09T02:28:10.422Z,46.12
2023-05-09T02:32:29.293Z,46.11
2023-05-09T02:36:45.968Z,45.57
2023-05-09T02:41:02.195Z,46.96
2023-05-09T02:45:18.509Z,46.76
2023-05-09T02:49:35.302Z,47.35
2023-05-09T02:53:51.632Z,48.26
2023-05-09T02:58:14.374Z,48.31
2023-05-09T03:02:31.463Z,47.51
2023-05-09T03:06:47.856Z,48.40
2023-05-09T03:11:04.163Z,47.42
2023-05-09T03:15:21.929Z,47.60
2023-05-09T03:19:38.212Z,48.50
2023-05-09T03:23:54.545Z,47.94
2023-05-09T03:28:10.978Z,48.05
2023-05-09T03:32:28.028Z,48.22
2023-05-09T03:36:44.870Z,48.20
2023-05-09T03:41:01.198Z,47.94
2023-05-09T03:45:17.544Z,47.38
2023-05-09T03:49:33.803Z,46.87
2023-05-09T03:53:50.267Z,47.57
2023-05-09T03:58:06.737Z,49.08
2023-05-09T04:02:23.585Z,48.80
2023-05-09T04:06:39.953Z,48.82
2023-05-09T04:10:56.228Z,48.64
2023-05-09T04:15:12.809Z,48.08
2023-05-09T04:19:29.228Z,48.74
2023-05-09T04:23:45.748Z,47.23
2023-05-09T04:28:02.388Z,47.00
2023-05-09T04:32:21.105Z,46.41
2023-05-09T04:36:37.436Z,47.94
2023-05-09T04:40:53.790Z,46.85
2023-05-09T04:45:12.049Z,46.12
2023-05-09T04:49:28.428Z,46.69
2023-05-09T04:53:45.026Z,46.55
2023-05-09T04:58:01.305Z,47.53
2023-05-09T05:02:17.730Z,46.35
2023-05-09T05:06:34.010Z,44.73
2023-05-09T05:10:51.291Z,45.45
2023-05-09T05:15:07.876Z,43.85
2023-05-09T05:19:24.130Z,45.03
2023-05-09T05:23:40.466Z,43.54
2023-05-09T05:27:56.745Z,44.64
2023-05-09T05:32:13.099Z,43.53
2023-05-09T05:36:29.472Z,43.41
2023-05-09T05:40:45.923Z,43.86
2023-05-09T05:45:05.337Z,44.93
2023-05-09T05:49:21.567Z,43.19
2023-05-09T05:53:37.829Z,44.75
2023-05-09T05:57:54.111Z,43.49
2023-05-09T06:02:10.682Z,41.65
2023-05-09T06:06:28.317Z,43.00
2023-05-09T06:10:44.828Z,41.85
2023-05-09T06:15:01.121Z,42.79
2023-05-09T06:19:17.403Z,41.45
2023-05-09T06:23:33.761Z,41.50
2023-05-09T06:27:50.107Z,41.03
2023-05-09T06:32:06.498Z,40.69
2023-05-09T06:36:22.890Z,40.24
2023-05-09T06:40:39.174Z,38.95
2023-05-09T06:44:55.627Z,38.88
2023-05-09T06:49:14.025Z,39.62
2023-05-09T06:53:30.522Z,38.71
2023-05-09T06:57:46.799Z,38.65
2023-05-09T07:02:03.191Z,39.02
2023-05-09T07:06:19.722Z,38.18
2023-05-09T07:10:36.332Z,38.33
2023-05-09T07:14:52.595Z,38.37
2023-05-09T07:19:09.034Z,37.89
2023-05-09T07:23:26.338Z,37.86
2023-05-09T07:27:42.653Z,36.86
2023-05-09T07:31:58.958Z,37.32
2023-05-09T07:36:17.156Z,36.83
2023-05-09T07:40:38.853Z,38.12
2023-05-09T07:44:55.337Z,38.43
2023-05-09T07:49:11.619Z,37.40
2023-05-09T07:53:28.857Z,36.75
2023-05-09T07:57:45.200Z,36.63
2023-05-09T08:02:01.601Z,35.63
2023-05-09T08:06:17.979Z,36.11
2023-05-09T08:10:34.336Z,36.61
2023-05-09T08:14:50.625Z,35.81
2023-05-09T08:19:06.895Z,35.97
2023-05-09T08:23:23.180Z,35.76
2023-05-09T08:27:39.525Z,34.18
2023-05-09T08:31:55.830Z,33.95
2023-05-09T08:36:12.205Z,34.55
2023-05-09T08:40:28.467Z,34.88
2023-05-09T08:44:44.785Z,36.50
2023-05-09T08:49:01.352Z,33.87
2023-05-09T08:53:17.709Z,35.74
2023-05-09T08:57:37.626Z,36.22
2023-05-09T09:01:55.124Z,33.63
2023-05-09T09:06:11.594Z,33.19
2023-05-09T09:10:29.882Z,33.78
2023-05-09T09:14:53.066Z,32.94
2023-05-09T09:19:13.209Z,31.56
2023-05-09T09:23:30.690Z,30.65
2023-05-09T09:27:47.012Z,29.74
2023-05-09T09:32:04.840Z,31.02
2023-05-09T09:36:32.627Z,31.35
2023-05-09T09:40:59.399Z,32.17
2023-05-09T09:45:20.356Z,30.80
2023-05-09T09:49:36.840Z,31.43
2023-05-09T09:53:53.206Z,31.05
2023-05-09T09:58:18.320Z,30.68
2023-05-09T10:02:34.743Z,30.16
2023-05-09T10:06:55.987Z,29.46
2023-05-09T10:11:12.663Z,27.79
2023-05-09T10:15:41.387Z,26.16
2023-05-09T10:20:06.734Z,26.60
2023-05-09T10:24:35.280Z,26.06
2023-05-09T10:28:53.640Z,25.92
2023-05-09T10:33:12.830Z,26.11
2023-05-09T10:37:30.951Z,29.44
2023-05-09T10:41:50.170Z,26.08
2023-05-09T10:46:07.097Z,27.20
2023-05-09T10:50:23.615Z,23.91
2023-05-09T10:54:39.913Z,26.72
2023-05-09T10:58:56.670Z,28.49
2023-05-09T11:03:13.022Z,29.71
2023-05-09T11:07:30.384Z,28.68
2023-05-09T11:11:58.094Z,27.19
2023-05-09T11:16:14.433Z,24.34
2023-05-09T11:20:33.765Z,25.35
2023-05-09T11:24:51.905Z,25.01
2023-05-09T11:29:10.418Z,25.45
2023-05-09T11:33:32.617Z,25.23
2023-05-09T11:37:53.247Z,25.49
2023-05-09T11:42:09.623Z,24.62
2023-05-09T11:46:27.265Z,25.31
2023-05-09T11:50:47.491Z,25.38
2023-05-09T11:55:03.934Z,25.60
2023-05-09T11:59:20.680Z,26.55
2023-05-09T12:03:42.605Z,26.25
2023-05-09T12:08:06.638Z,26.49
2023-05-09T12:12:23.031Z,24.21
2023-05-09T12:16:45.406Z,25.52
2023-05-09T12:21:02.056Z,26.02
2023-05-09T12:25:18.297Z,25.38
2023-05-09T12:29:35.290Z,25.81
2023-05-09T12:33:51.708Z,26.09
2023-05-09T12:38:07.980Z,25.21
2023-05-09T12:42:24.246Z,25.32
2023-05-09T12:46:40.554Z,25.20
2023-05-09T12:50:56.843Z,24.67
2023-05-09T12:55:14.450Z,25.60
2023-05-09T12:59:31.145Z,25.40
2023-05-09T13:04:06.207Z,24.57
2023-05-09T13:08:23.449Z,23.66
2023-05-09T13:12:40.816Z,24.65
2023-05-09T13:16:57.319Z,24.74
2023-05-09T13:21:13.634Z,23.18
2023-05-09T13:25:29.984Z,22.37
2023-05-09T13:29:46.271Z,22.40
2023-05-09T13:34:02.526Z,22.01
2023-05-09T13:38:18.781Z,21.32
2023-05-09T13:42:35.212Z,22.09
2023-05-09T13:46:51.663Z,21.44
2023-05-09T13:51:08.348Z,22.11
2023-05-09T13:55:26.230Z,22.74
2023-05-09T13:59:43.408Z,22.16
2023-05-09T14:03:59.817Z,22.62
2023-05-09T14:08:16.923Z,22.66
2023-05-09T14:12:33.130Z,23.01
2023-05-09T14:16:49.510Z,21.97
2023-05-09T14:21:06.775Z,22.41
2023-05-09T14:25:23.048Z,23.17
2023-05-09T14:29:41.380Z,23.79
2023-05-09T14:33:58.049Z,23.41
2023-05-09T14:38:14.487Z,22.48
2023-05-09T14:42:30.787Z,22.66
2023-05-09T14:46:47.173Z,23.15
2023-05-09T14:51:03.582Z,23.29
2023-05-09T14:55:20.367Z,24.11
2023-05-09T14:59:37.297Z,24.90
2023-05-09T15:03:53.776Z,23.12
2023-05-09T15:08:10.149Z,22.57
2023-05-09T15:12:26.429Z,22.75
2023-05-09T15:16:42.768Z,21.91
2023-05-09T15:20:59.254Z,22.59
2023-05-09T15:25:16.550Z,24.61
2023-05-09T15:29:32.833Z,24.23
2023-05-09T15:33:49.408Z,25.44
2023-05-09T15:38:05.776Z,26.48
2023-05-09T15:42:22.652Z,25.57
2023-05-09T15:46:39.123Z,24.91
2023-05-09T15:50:55.483Z,23.38
2023-05-09T15:55:13.262Z,23.30
2023-05-09T15:59:29.559Z,22.89
2023-05-09T16:03:46.127Z,22.83
2023-05-09T16:08:03.077Z,23.03
2023-05-09T16:12:19.537Z,23.03
2023-05-09T16:16:36.178Z,24.29
2023-05-09T16:20:52.624Z,23.29
2023-05-09T16:25:09.317Z,23.22
2023-05-09T16:29:25.909Z,23.25
2023-05-09T16:33:42.243Z,22.84
2023-05-09T16:37:58.582Z,23.04
2023-05-09T16:42:15.099Z,23.54
2023-05-09T16:46:31.784Z,24.07
2023-05-09T16:50:48.551Z,25.10
2023-05-09T16:55:05.188Z,26.03
2023-05-09T16:59:22.136Z,26.37
2023-05-09T17:03:38.431Z,25.73
2023-05-09T17:07:55.629Z,25.77
2023-05-09T17:12:17.839Z,26.36
2023-05-09T17:16:37.243Z,27.30
2023-05-09T17:20:54.582Z,26.76
2023-05-09T17:25:11.164Z,27.45
2023-05-09T17:29:31.553Z,27.20
2023-05-09T17:33:48.051Z,27.10
2023-05-09T17:38:05.029Z,27.93
2023-05-09T17:42:21.325Z,27.74
2023-05-09T17:46:37.807Z,27.76
2023-05-09T17:50:54.684Z,28.30
2023-05-09T17:55:11.799Z,30.83
2023-05-09T17:59:28.786Z,28.79
2023-05-09T18:03:45.174Z,29.28
2023-05-09T18:08:01.695Z,29.55
2023-05-09T18:12:18.070Z,29.83
2023-05-09T18:16:37.030Z,30.08
2023-05-09T18:20:53.626Z,30.51
2023-05-09T18:25:10.315Z,31.03
2023-05-09T18:29:26.655Z,30.70
2023-05-09T18:33:43.889Z,31.42
2023-05-09T18:38:00.289Z,31.09
2023-05-09T18:42:16.660Z,31.67
2023-05-09T18:46:34.018Z,32.07
2023-05-09T18:50:52.689Z,32.59
2023-05-09T18:55:11.884Z,32.27
2023-05-09T18:59:28.248Z,32.91
2023-05-09T19:03:54.246Z,33.52
2023-05-09T19:08:10.678Z,33.21
2023-05-09T19:12:27.385Z,33.77
2023-05-09T19:16:46.233Z,33.62
2023-05-09T19:25:37.261Z,34.46
2023-05-09T19:29:53.557Z,34.45
2023-05-09T19:34:09.831Z,34.53
2023-05-09T19:38:26.204Z,34.42
2023-05-09T19:42:42.556Z,35.17
2023-05-09T19:46:58.766Z,35.22
2023-05-09T19:51:15.763Z,35.04
2023-05-09T19:55:32.056Z,35.16
2023-05-09T19:59:48.351Z,35.34
2023-05-09T20:04:04.819Z,35.41
2023-05-09T20:08:21.684Z,35.50
2023-05-09T20:12:37.849Z,35.86
2023-05-09T20:16:54.138Z,36.00
2023-05-09T20:21:10.900Z,36.35
2023-05-09T20:25:27.329Z,36.80
2023-05-09T20:29:43.499Z,35.94
2023-05-09T20:33:59.684Z,36.55
2023-05-09T20:38:16.109Z,36.05
2023-05-09T20:42:32.769Z,36.15
2023-05-09T20:46:50.737Z,36.05
2023-05-09T20:51:06.925Z,35.97
2023-05-09T20:55:23.340Z,36.53
2023-05-09T20:59:41.167Z,35.92
2023-05-09T21:03:57.491Z,36.62
2023-05-09T21:08:13.709Z,36.95
2023-05-09T21:12:30.742Z,36.63
2023-05-09T21:16:47.070Z,36.80
2023-05-09T21:21:06.930Z,36.36
2023-05-09T21:25:23.149Z,36.91
2023-05-09T21:29:39.414Z,37.08
2023-05-09T21:33:55.571Z,37.32
2023-05-09T21:38:12.265Z,38.08
2023-05-09T21:42:28.434Z,38.85
2023-05-09T21:46:46.552Z,38.24
2023-05-09T21:51:03.392Z,38.30
2023-05-09T21:55:19.594Z,37.88
2023-05-09T21:59:36.815Z,38.39
2023-05-09T22:03:53.266Z,38.33
2023-05-09T22:08:10.608Z,38.86
2023-05-09T22:12:26.980Z,39.30
2023-05-09T22:16:43.309Z,38.47
2023-05-09T22:20:59.664Z,39.27
2023-05-09T22:25:15.825Z,38.50
2023-05-09T22:29:34.314Z,39.11
2023-05-09T22:33:50.699Z,39.48
2023-05-09T22:38:06.929Z,38.81
2023-05-09T22:42:23.086Z,39.33
2023-05-09T22:46:39.481Z,39.32
2023-05-09T22:50:55.831Z,39.96
2023-05-09T22:55:12.278Z,39.99
2023-05-09T22:59:28.501Z,40.12
2023-05-09T23:03:44.852Z,40.44
2023-05-09T23:08:01.208Z,40.16
2023-05-09T23:12:17.750Z,41.21
2023-05-09T23:16:34.087Z,40.79
2023-05-09T23:20:50.871Z,40.33
2023-05-09T23:25:08.013Z,41.06
2023-05-09T23:29:25.396Z,40.87
2023-05-09T23:33:41.670Z,41.04
2023-05-09T23:37:58.065Z,40.94
2023-05-09T23:42:14.394Z,41.53
2023-05-09T23:46:31.047Z,42.03
2023-05-09T23:50:47.393Z,42.13
2023-05-09T23:55:03.762Z,41.94
2023-05-09T23:59:20.154Z,42.33
